Time;durP1;ratioP1;P1;durP2;ratioP2;P2;SDS_P1;SDS_P2;PMS_P1;PMS_P2;Temp;Humidity;BMP_temperature;BMP_pressure;BME280_temperature;BME280_humidity;BME280_pressure;Samples;Min_cycle;Max_cycle;Signal;HPM_P1;HPM_P2
2021/08/25 00:00:18;;;;;;;;;;;;;;;18.50;49.00;100015.88;3337438;29;21173;-74
2021/08/25 00:01:59;;;;;;;;;;;;;;;18.43;48.72;100015.19;3337254;29;19928;-75
2021/08/25 00:03:39;;;;;;;;;;;;;;;18.35;48.94;100012.84;3337955;29;20337;-74
2021/08/25 00:05:20;;;;;;;;;;;;;;;18.29;48.66;100007.34;3337677;29;20014;-74
2021/08/25 00:07:00;;;;;;;;;;;;;;;18.26;49.03;100013.22;3337723;29;19929;-74
2021/08/25 00:08:41;;;;;;;;;;;;;;;18.24;48.87;100020.72;3337223;29;19929;-75
2021/08/25 00:10:21;;;;;;;;;;;;;;;18.22;48.93;100011.22;3337394;29;20400;-74
2021/08/25 00:12:02;;;;;;;;;;;;;;;18.19;48.52;100020.63;3337569;29;20027;-75
2021/08/25 00:13:43;;;;;;;;;;;;;;;18.20;48.63;100011.47;3337665;29;20320;-75
2021/08/25 00:15:24;;;;;;;;;;;;;;;18.21;48.54;100004.19;3336545;29;19935;-75
2021/08/25 00:17:04;;;;;;;;;;;;;;;18.22;48.47;100003.13;3337245;29;19928;-76
2021/08/25 00:18:45;;;;;;;;;;;;;;;18.24;48.45;100004.53;3336671;29;19928;-75
2021/08/25 00:20:25;;;;;;;;;;;;;;;18.24;48.67;100007.22;3337349;29;19984;-76
2021/08/25 00:22:06;;;;;;;;;;;;;;;18.24;48.67;100001.84;3337336;29;20411;-76
2021/08/25 00:23:47;;;;;;;;;;;;;;;18.24;48.15;100001.84;3337599;29;19929;-76
2021/08/25 00:25:27;;;;;;;;;;;;;;;18.24;48.47;100001.03;3337787;29;19928;-75
2021/08/25 00:27:08;;;;;;;;;;;;;;;18.24;48.11;100001.84;3337964;29;20022;-76
2021/08/25 00:28:49;;;;;;;;;;;;;;;18.26;48.28;100001.63;3336591;29;19929;-76
2021/08/25 00:30:29;;;;;;;;;;;;;;;18.27;48.37;99998.66;3337486;29;19935;-76
2021/08/25 00:32:10;;;;;;;;;;;;;;;18.28;48.28;100000.31;3336203;29;19975;-75
2021/08/25 00:33:51;;;;;;;;;;;;;;;18.28;47.94;100002.19;3336855;29;20308;-75
2021/08/25 00:35:31;;;;;;;;;;;;;;;18.29;47.94;100004.66;3337452;29;19929;-76
2021/08/25 00:37:12;;;;;;;;;;;;;;;18.27;47.95;100006.75;3337757;29;19928;-76
2021/08/25 00:38:53;;;;;;;;;;;;;;;18.28;48.12;100000.31;3336337;29;19929;-76
2021/08/25 00:40:33;;;;;;;;;;;;;;;18.30;47.78;100006.31;3337351;29;19994;-75
2021/08/25 00:42:14;;;;;;;;;;;;;;;18.32;48.10;100003.34;3335928;29;19942;-76
2021/08/25 00:43:55;;;;;;;;;;;;;;;18.34;47.87;100009.34;3337223;29;20368;-76
2021/08/25 00:45:39;;;;;;;;;;;;;;;18.35;47.63;100007.44;3337711;29;20396;-76
2021/08/25 00:47:19;;;;;;;;;;;;;;;18.33;47.48;100001.47;3337538;29;19983;-75
2021/08/25 00:49:00;;;;;;;;;;;;;;;18.29;47.71;100003.84;3336959;29;20324;-76
2021/08/25 00:50:40;;;;;;;;;;;;;;;18.29;47.74;100006.53;3337082;29;19928;-74
2021/08/25 00:52:21;;;;;;;;;;;;;;;18.28;47.84;100008.41;3337482;29;19984;-75
2021/08/25 00:54:02;;;;;;;;;;;;;;;18.27;47.63;100001.38;3337560;29;19929;-75
2021/08/25 00:55:42;;;;;;;;;;;;;;;18.27;47.68;100005.94;3337718;29;19967;-75
2021/08/25 00:57:23;;;;;;;;;;;;;;;18.26;47.26;100004.31;3337268;29;19927;-75
2021/08/25 00:59:04;;;;;;;;;;;;;;;18.23;47.47;100004.78;3337313;29;19929;-74
2021/08/25 01:00:46;;;;;;;;;;;;;;;18.21;47.49;100002.31;3325041;29;20027;-75
2021/08/25 01:02:30;;;;;;;;;;;;;;;18.19;47.32;100004.44;3323775;29;20404;-75
2021/08/25 01:04:14;;;;;;;;;;;;;;;18.18;47.40;99997.41;3324993;29;20298;-75
2021/08/25 01:05:54;;;;;;;;;;;;;;;18.21;47.50;100002.31;3323682;29;20019;-75
2021/08/25 01:07:36;;;;;;;;;;;;;;;18.23;47.14;100002.09;3324757;29;19935;-75
2021/08/25 01:09:17;;;;;;;;;;;;;;;18.23;47.10;100000.22;3330664;29;20408;-75
2021/08/25 01:11:05;;;;;;;;;;;;;;;18.24;47.20;100007.22;3337269;29;19929;-75
2021/08/25 01:12:45;;;;;;;;;;;;;;;18.24;47.32;100007.22;3337428;29;19932;-74
2021/08/25 01:14:26;;;;;;;;;;;;;;;18.23;47.21;100002.91;3337193;29;20031;-75
2021/08/25 01:16:07;;;;;;;;;;;;;;;18.22;47.41;100012.03;3337426;29;20527;-75
2021/08/25 01:17:47;;;;;;;;;;;;;;;18.23;47.10;100004.78;3337141;29;19928;-76
2021/08/25 01:19:28;;;;;;;;;;;;;;;18.23;46.93;100004.78;3336755;29;19934;-76
2021/08/25 01:21:09;;;;;;;;;;;;;;;18.22;47.00;100003.94;3325364;29;20348;-76
2021/08/25 01:22:49;;;;;;;;;;;;;;;18.20;47.17;100006.09;3336161;29;19935;-76
2021/08/25 01:24:30;;;;;;;;;;;;;;;18.17;47.16;100006.53;3339422;29;19928;-77
2021/08/25 01:26:11;;;;;;;;;;;;;;;18.17;47.04;100003.03;3338540;29;19932;-76
2021/08/25 01:27:59;;;;;;;;;;;;;;;18.16;47.00;99999.50;3339255;29;20369;-77
2021/08/25 01:29:40;;;;;;;;;;;;;;;18.16;46.85;100002.22;3325657;29;19929;-76
2021/08/25 01:31:21;;;;;;;;;;;;;;;18.16;47.17;99998.69;3336661;29;19934;-74
2021/08/25 01:33:02;;;;;;;;;;;;;;;18.15;47.28;100003.28;3338535;29;19960;-76
2021/08/25 01:34:55;;;;;;;;;;;;;;;18.14;47.13;100001.63;3339267;29;19936;-77
2021/08/25 01:36:36;;;;;;;;;;;;;;;18.13;47.31;99996.47;3339523;29;19935;-76
2021/08/25 01:38:19;;;;;;;;;;;;;;;18.11;47.30;99998.59;3339439;29;19932;-77
2021/08/25 01:40:00;;;;;;;;;;;;;;;18.10;47.22;99995.06;3338343;29;19928;-76
2021/08/25 01:41:40;;;;;;;;;;;;;;;18.08;47.15;100002.56;3338714;29;20035;-75
2021/08/25 01:43:21;;;;;;;;;;;;;;;18.05;47.00;99993.09;3339121;29;19928;-75
2021/08/25 01:45:02;;;;;;;;;;;;;;;18.04;47.05;100006.78;3339117;29;19928;-75
2021/08/25 01:46:43;;;;;;;;;;;;;;;18.03;47.01;99999.75;3339306;29;19928;-75
2021/08/25 01:48:24;;;;;;;;;;;;;;;18.02;47.39;100001.66;3337886;29;20332;-74
2021/08/25 01:50:05;;;;;;;;;;;;;;;18.03;47.07;100010.56;3339128;29;20297;-75
2021/08/25 01:51:45;;;;;;;;;;;;;;;18.03;47.15;99994.38;3339383;29;20000;-76
2021/08/25 01:53:26;;;;;;;;;;;;;;;18.02;47.28;99998.13;3339235;29;19939;-75
2021/08/25 01:55:06;;;;;;;;;;;;;;;18.00;47.13;100002.94;3339247;29;19928;-76
2021/08/25 01:56:47;;;;;;;;;;;;;;;17.99;47.29;100002.13;3339159;29;20400;-75
2021/08/25 01:58:27;;;;;;;;;;;;;;;17.99;47.29;99998.59;3338197;29;19928;-76
2021/08/25 02:00:08;;;;;;;;;;;;;;;18.00;47.32;100000.25;3338960;29;19935;-74
2021/08/25 02:01:49;;;;;;;;;;;;;;;18.00;47.18;100001.06;3339145;29;19933;-75
2021/08/25 02:03:29;;;;;;;;;;;;;;;17.98;47.15;100005.88;3339397;29;19936;-74
2021/08/25 02:05:10;;;;;;;;;;;;;;;17.98;47.23;99999.66;3339077;29;20316;-75
2021/08/25 02:06:50;;;;;;;;;;;;;;;17.96;47.05;100004.44;3339306;29;19928;-74
2021/08/25 02:08:31;;;;;;;;;;;;;;;17.95;46.96;100003.63;3338830;29;19928;-75
2021/08/25 02:10:12;;;;;;;;;;;;;;;17.93;47.15;99994.97;3339363;29;20440;-75
2021/08/25 02:11:52;;;;;;;;;;;;;;;17.93;46.95;99994.13;3338982;29;19972;-75
2021/08/25 02:13:33;;;;;;;;;;;;;;;17.91;46.95;99996.25;3339753;29;19935;-75
2021/08/25 02:15:13;;;;;;;;;;;;;;;17.91;46.78;100004.34;3338998;29;19928;-75
2021/08/25 02:16:54;;;;;;;;;;;;;;;17.89;46.90;100001.91;3338872;29;19935;-75
2021/08/25 02:18:34;;;;;;;;;;;;;;;17.88;46.96;99998.34;3337514;29;20392;-75
2021/08/25 02:20:31;;;;;;;;;;;;;;;17.88;46.84;99992.97;3338858;29;20468;-76
2021/08/25 02:22:11;;;;;;;;;;;;;;;17.86;47.13;99994.25;3339041;29;19928;-75
2021/08/25 02:23:52;;;;;;;;;;;;;;;17.83;46.84;99992.84;3338841;29;19965;-76
2021/08/25 02:25:32;;;;;;;;;;;;;;;17.83;47.13;100000.13;3338992;29;19936;-76
2021/08/25 02:27:13;;;;;;;;;;;;;;;17.82;46.88;99993.91;3338290;29;20388;-76
2021/08/25 02:28:54;;;;;;;;;;;;;;;17.82;47.07;99999.31;3334826;29;19929;-76
2021/08/25 02:30:34;;;;;;;;;;;;;;;17.83;46.87;99990.16;3338780;29;20030;-76
2021/08/25 02:32:15;;;;;;;;;;;;;;;17.83;47.10;99992.84;3337385;29;19984;-75
2021/08/25 02:33:56;;;;;;;;;;;;;;;17.82;46.98;99993.91;3338584;29;20350;-76
2021/08/25 02:35:36;;;;;;;;;;;;;;;17.82;46.85;99998.50;3338004;29;19928;-76
2021/08/25 02:37:17;;;;;;;;;;;;;;;17.78;46.83;99998.09;3338712;29;19935;-75
2021/08/25 02:38:58;;;;;;;;;;;;;;;17.76;47.10;99999.38;3338208;29;19928;-77
2021/08/25 02:40:39;;;;;;;;;;;;;;;17.77;46.87;99996.47;3339087;29;19932;-76
2021/08/25 02:42:19;;;;;;;;;;;;;;;17.78;47.02;100002.66;3337838;29;19933;-77
2021/08/25 02:44:00;;;;;;;;;;;;;;;17.80;47.08;100006.81;3335270;29;20002;-76
2021/08/25 02:45:40;;;;;;;;;;;;;;;17.80;46.90;100006.81;3338439;29;20049;-75
2021/08/25 02:47:21;;;;;;;;;;;;;;;17.80;46.91;99998.72;3338422;29;19928;-76
2021/08/25 02:49:03;;;;;;;;;;;;;;;17.77;46.92;100001.84;3338468;29;20526;-75
2021/08/25 02:50:43;;;;;;;;;;;;;;;17.77;46.87;100001.84;3338705;29;19953;-75
2021/08/25 02:52:24;;;;;;;;;;;;;;;17.75;46.75;100003.94;3338400;29;19928;-74
2021/08/25 02:54:04;;;;;;;;;;;;;;;17.73;46.84;99995.28;3338471;29;20510;-75
2021/08/25 02:55:45;;;;;;;;;;;;;;;17.71;46.77;99994.72;3337659;29;20312;-75
2021/08/25 02:57:25;;;;;;;;;;;;;;;17.68;46.70;99995.16;3338221;29;19928;-75
2021/08/25 02:59:06;;;;;;;;;;;;;;;17.66;46.57;99997.28;3338111;29;19935;-76
2021/08/25 03:00:46;;;;;;;;;;;;;;;17.66;46.59;99997.28;3338520;29;19928;-76
2021/08/25 03:02:27;;;;;;;;;;;;;;;17.65;46.65;99995.63;3338431;29;20353;-75
2021/08/25 03:04:07;;;;;;;;;;;;;;;17.65;46.64;99996.44;3338805;29;20019;-76
2021/08/25 03:05:48;;;;;;;;;;;;;;;17.65;46.88;100001.00;3338240;29;19993;-76
2021/08/25 03:07:28;;;;;;;;;;;;;;;17.63;46.81;99998.56;3338649;29;19929;-75
2021/08/25 03:09:09;;;;;;;;;;;;;;;17.63;46.85;100000.41;3338345;29;19935;-75
2021/08/25 03:10:49;;;;;;;;;;;;;;;17.61;46.96;99995.28;3338142;29;20023;-75
2021/08/25 03:12:30;;;;;;;;;;;;;;;17.61;47.10;100003.38;3337869;29;20400;-75
2021/08/25 03:14:10;;;;;;;;;;;;;;;17.61;46.84;100003.38;3338328;29;19934;-75
2021/08/25 03:15:51;;;;;;;;;;;;;;;17.60;46.72;100009.78;3338172;29;20479;-75
2021/08/25 03:17:31;;;;;;;;;;;;;;;17.55;47.18;100011.56;3338223;29;19959;-75
2021/08/25 03:19:12;;;;;;;;;;;;;;;17.50;47.02;100006.84;3338134;29;19936;-75
2021/08/25 03:20:55;;;;;;;;;;;;;;;17.46;47.24;100007.56;3337966;29;20308;-75
2021/08/25 03:22:36;;;;;;;;;;;;;;;17.44;47.46;100000.53;3337810;29;19929;-76
2021/08/25 03:24:16;;;;;;;;;;;;;;;17.47;47.30;100003.81;3338135;29;20475;-75
2021/08/25 03:25:57;;;;;;;;;;;;;;;17.50;47.38;100000.66;3337505;29;20400;-75
2021/08/25 03:27:37;;;;;;;;;;;;;;;17.52;47.24;99993.97;3337942;29;20400;-75
2021/08/25 03:29:18;;;;;;;;;;;;;;;17.54;47.19;99996.44;3338002;29;20312;-75
2021/08/25 03:30:58;;;;;;;;;;;;;;;17.55;47.34;99987.28;3338139;29;19935;-75
2021/08/25 03:32:39;;;;;;;;;;;;;;;17.57;47.26;99995.97;3337795;29;19928;-75
2021/08/25 03:34:20;;;;;;;;;;;;;;;17.60;46.98;99990.09;3338331;29;20073;-75
2021/08/25 03:36:00;;;;;;;;;;;;;;;17.62;46.79;99991.53;3337296;29;19928;-75
2021/08/25 03:37:41;;;;;;;;;;;;;;;17.65;47.01;99998.31;3338427;29;19932;-76
2021/08/25 03:39:21;;;;;;;;;;;;;;;17.68;47.12;100005.94;3338806;29;20538;-77
2021/08/25 03:41:02;;;;;;;;;;;;;;;17.72;47.13;100000.91;3339331;29;19935;-75
2021/08/25 03:42:42;;;;;;;;;;;;;;;17.76;46.80;99999.38;3338636;29;19975;-76
2021/08/25 03:44:23;;;;;;;;;;;;;;;17.79;46.75;99989.00;3337150;29;20297;-75
2021/08/25 03:46:03;;;;;;;;;;;;;;;17.84;47.02;99991.00;3338459;29;19928;-76
2021/08/25 03:47:44;;;;;;;;;;;;;;;17.86;46.77;99995.09;3338203;29;19928;-75
2021/08/25 03:49:24;;;;;;;;;;;;;;;17.85;47.15;99988.03;3337696;29;20359;-77
2021/08/25 03:51:05;;;;;;;;;;;;;;;17.84;46.95;99996.38;3337867;29;19959;-75
2021/08/25 03:52:45;;;;;;;;;;;;;;;17.84;47.04;99994.50;3337513;29;19932;-75
2021/08/25 03:54:27;;;;;;;;;;;;;;;17.84;47.02;99991.81;3337644;29;20425;-75
2021/08/25 03:56:08;;;;;;;;;;;;;;;17.85;47.10;99993.44;3337922;29;20404;-74
2021/08/25 03:57:49;;;;;;;;;;;;;;;17.87;46.81;99979.72;3337917;29;19935;-75
2021/08/25 03:59:29;;;;;;;;;;;;;;;17.87;46.79;99991.34;3338053;29;19929;-75
2021/08/25 04:01:10;;;;;;;;;;;;;;;17.86;47.25;99987.00;3336938;29;19964;-75
2021/08/25 04:02:50;;;;;;;;;;;;;;;17.87;47.10;99988.63;3336855;29;19940;-75
2021/08/25 04:04:31;;;;;;;;;;;;;;;17.89;46.70;99991.09;3337699;29;20316;-74
2021/08/25 04:06:11;;;;;;;;;;;;;;;17.87;46.88;99985.94;3336849;29;19989;-75
2021/08/25 04:07:52;;;;;;;;;;;;;;;17.88;46.72;99990.25;3337333;29;19935;-76
2021/08/25 04:09:32;;;;;;;;;;;;;;;17.94;46.79;99984.97;3337788;29;19928;-75
2021/08/25 04:11:19;;;;;;;;;;;;;;;17.98;46.69;99980.78;3336836;29;19936;-75
2021/08/25 04:13:00;;;;;;;;;;;;;;;18.03;46.62;99983.59;3336400;29;19928;-76
2021/08/25 04:14:40;;;;;;;;;;;;;;;18.09;46.80;99979.94;3337320;29;20277;-76
2021/08/25 04:16:20;;;;;;;;;;;;;;;18.15;46.71;99984.41;3338069;29;19928;-75
2021/08/25 04:18:01;;;;;;;;;;;;;;;18.18;46.69;99981.22;3337880;29;19951;-75
2021/08/25 04:19:43;;;;;;;;;;;;;;;18.20;46.70;99984.50;3338166;29;19928;-75
2021/08/25 04:21:24;;;;;;;;;;;;;;;18.23;46.52;99992.13;3337672;29;20030;-75
2021/08/25 04:23:04;;;;;;;;;;;;;;;18.27;46.58;99985.16;3337792;29;19935;-75
2021/08/25 04:24:45;;;;;;;;;;;;;;;18.33;46.49;99985.28;3337780;29;20312;-75
2021/08/25 04:26:25;;;;;;;;;;;;;;;18.38;46.18;99990.78;3338697;29;20008;-75
2021/08/25 04:28:06;;;;;;;;;;;;;;;18.45;46.34;99988.78;3337299;29;19929;-76
2021/08/25 04:29:46;;;;;;;;;;;;;;;18.51;46.30;99991.34;3337504;29;19929;-75
2021/08/25 04:31:28;;;;;;;;;;;;;;;18.57;46.28;99988.75;3337530;29;20388;-75
2021/08/25 04:33:09;;;;;;;;;;;;;;;18.61;45.82;99985.34;3337746;29;19928;-75
2021/08/25 04:34:49;;;;;;;;;;;;;;;18.67;45.86;99994.34;3336432;29;19928;-74
2021/08/25 04:36:30;;;;;;;;;;;;;;;18.71;45.76;99982.81;3336663;29;19928;-75
2021/08/25 04:38:10;;;;;;;;;;;;;;;18.77;45.64;99982.94;3337634;29;19924;-76
2021/08/25 04:39:51;;;;;;;;;;;;;;;18.81;45.74;99976.81;3337531;29;19932;-76
2021/08/25 04:41:31;;;;;;;;;;;;;;;18.85;45.81;99983.38;3337592;29;19936;-75
2021/08/25 04:43:12;;;;;;;;;;;;;;;18.87;45.69;99977.72;3337488;29;19947;-75
2021/08/25 04:44:52;;;;;;;;;;;;;;;18.90;45.86;99979.97;3336818;29;20312;-75
2021/08/25 04:46:33;;;;;;;;;;;;;;;18.92;45.80;99969.72;3337408;29;19935;-75
2021/08/25 04:48:13;;;;;;;;;;;;;;;18.96;45.80;99968.19;3337372;29;19980;-74
2021/08/25 04:49:54;;;;;;;;;;;;;;;19.00;45.68;99972.06;3337252;29;19928;-75
2021/08/25 04:51:34;;;;;;;;;;;;;;;19.03;45.57;99976.97;3336337;29;19989;-75
2021/08/25 04:53:17;;;;;;;;;;;;;;;19.08;45.43;99976.25;3337542;29;20020;-75
2021/08/25 04:54:58;;;;;;;;;;;;;;;19.12;45.31;99975.47;3337063;29;19929;-74
2021/08/25 04:56:39;;;;;;;;;;;;;;;19.15;45.60;99971.47;3338900;29;20403;-76
2021/08/25 04:58:20;;;;;;;;;;;;;;;19.16;45.24;99971.25;3339771;29;19921;-75
2021/08/25 05:00:00;;;;;;;;;;;;;;;19.12;45.04;99970.09;3338927;29;19929;-74
2021/08/25 05:01:41;;;;;;;;;;;;;;;19.12;45.28;99967.38;3339469;29;19979;-75
2021/08/25 05:03:21;;;;;;;;;;;;;;;19.14;45.11;99964.44;3339843;29;19944;-76
2021/08/25 05:05:02;;;;;;;;;;;;;;;19.15;44.78;99968.78;3340376;29;19928;-75
2021/08/25 05:06:43;;;;;;;;;;;;;;;19.20;44.56;99962.66;3338225;29;19921;-79
2021/08/25 05:08:23;;;;;;;;;;;;;;;19.21;44.30;99967.00;3328393;29;19962;-76
2021/08/25 05:10:04;;;;;;;;;;;;;;;19.22;44.25;99968.63;3339340;29;20034;-76
2021/08/25 05:11:44;;;;;;;;;;;;;;;19.23;44.28;99971.06;3337726;29;19963;-76
2021/08/25 05:13:25;;;;;;;;;;;;;;;19.25;44.10;99968.13;3338946;29;19935;-76
2021/08/25 05:15:06;;;;;;;;;;;;;;;19.27;43.88;99969.53;3337246;29;19928;-76
2021/08/25 05:16:47;;;;;;;;;;;;;;;19.30;43.55;99969.03;3339345;29;19928;-75
2021/08/25 05:18:28;;;;;;;;;;;;;;;19.34;43.31;99969.38;3338911;29;19932;-78
2021/08/25 05:20:09;;;;;;;;;;;;;;;19.38;43.30;99968.63;3339449;29;20517;-75
2021/08/25 05:21:49;;;;;;;;;;;;;;;19.43;43.32;99969.78;3337307;29;20381;-75
2021/08/25 05:23:30;;;;;;;;;;;;;;;19.46;43.15;99967.38;3337459;29;20052;-75
2021/08/25 05:25:11;;;;;;;;;;;;;;;19.49;43.21;99969.63;3336172;29;19984;-75
2021/08/25 05:26:51;;;;;;;;;;;;;;;19.54;43.00;99971.56;3336745;29;20308;-76
2021/08/25 05:28:32;;;;;;;;;;;;;;;19.56;42.91;99964.84;3339484;29;19928;-78
2021/08/25 05:30:12;;;;;;;;;;;;;;;19.61;42.81;99962.22;3337687;29;19984;-77
2021/08/25 05:31:54;;;;;;;;;;;;;;;19.66;42.93;99960.69;3338564;29;19992;-75
2021/08/25 05:33:34;;;;;;;;;;;;;;;19.71;42.66;99955.38;3339889;29;19935;-76
2021/08/25 05:35:15;;;;;;;;;;;;;;;19.75;42.60;99962.75;3339120;29;19929;-77
2021/08/25 05:36:56;;;;;;;;;;;;;;;19.80;42.51;99953.88;3338810;29;19935;-77
2021/08/25 05:38:36;;;;;;;;;;;;;;;19.79;42.29;99957.66;3339651;29;20309;-77
2021/08/25 05:40:17;;;;;;;;;;;;;;;19.79;42.59;99958.47;3337516;29;20004;-76
2021/08/25 05:41:57;;;;;;;;;;;;;;;19.84;42.42;99955.03;3336355;29;19948;-75
2021/08/25 05:43:38;;;;;;;;;;;;;;;19.92;42.40;99956.47;3333002;29;20019;-76
2021/08/25 05:45:19;;;;;;;;;;;;;;;19.99;42.21;99952.53;3339188;29;19939;-76
2021/08/25 05:47:00;;;;;;;;;;;;;;;20.06;42.06;99952.34;3338510;29;20385;-78
2021/08/25 05:48:41;;;;;;;;;;;;;;;20.08;41.93;99949.38;3338414;29;19980;-77
2021/08/25 05:50:21;;;;;;;;;;;;;;;20.10;41.83;99949.97;3341820;29;19928;-78
2021/08/25 05:52:02;;;;;;;;;;;;;;;20.14;41.87;99942.97;3345922;29;19942;-78
2021/08/25 05:53:42;;;;;;;;;;;;;;;20.19;41.61;99943.06;3350943;29;20568;-77
2021/08/25 05:55:23;;;;;;;;;;;;;;;20.25;41.67;99945.56;3349953;29;19980;-77
2021/08/25 05:57:03;;;;;;;;;;;;;;;20.34;41.58;99942.41;3339379;29;19928;-76
2021/08/25 05:58:44;;;;;;;;;;;;;;;20.40;41.28;99944.91;3339178;29;20234;-77
2021/08/25 06:00:25;;;;;;;;;;;;;;;20.47;41.26;99936.59;3334342;29;20557;-77
2021/08/25 06:02:05;;;;;;;;;;;;;;;20.55;40.93;99943.47;3339685;29;19935;-76
2021/08/25 06:03:46;;;;;;;;;;;;;;;20.62;40.72;99938.69;3338998;29;19924;-79
2021/08/25 06:05:26;;;;;;;;;;;;;;;20.68;40.69;99938.50;3336640;29;19928;-76
2021/08/25 06:07:08;;;;;;;;;;;;;;;20.80;40.42;99938.31;3320442;29;19944;-74
2021/08/25 06:08:49;;;;;;;;;;;;;;;20.94;40.37;99932.50;3336271;29;20027;-75
2021/08/25 06:10:30;;;;;;;;;;;;;;;21.10;40.08;99939.69;3336854;29;19953;-77
2021/08/25 06:12:11;;;;;;;;;;;;;;;21.27;40.07;99937.69;3336837;29;19928;-76
2021/08/25 06:13:51;;;;;;;;;;;;;;;21.46;39.92;99937.31;3337580;29;19973;-74
2021/08/25 06:15:32;;;;;;;;;;;;;;;21.67;39.37;99938.25;3337954;29;19935;-75
2021/08/25 06:17:12;;;;;;;;;;;;;;;21.88;39.33;99934.56;3334926;29;20384;-76
2021/08/25 06:18:53;;;;;;;;;;;;;;;22.11;38.89;99938.75;3335835;29;19932;-75
2021/08/25 06:20:51;;;;;;;;;;;;;;;22.33;38.54;99938.63;3338978;29;20361;-76
2021/08/25 06:22:32;;;;;;;;;;;;;;;22.51;38.34;99944.63;3339115;29;19935;-75
2021/08/25 06:24:13;;;;;;;;;;;;;;;22.67;38.07;99940.06;3338636;29;19993;-75
2021/08/25 06:25:53;;;;;;;;;;;;;;;22.82;37.51;99937.34;3338073;29;19928;-77
2021/08/25 06:27:34;;;;;;;;;;;;;;;22.99;37.51;99929.81;3338508;29;19928;-78
2021/08/25 06:29:14;;;;;;;;;;;;;;;23.15;37.38;99929.81;3339022;29;20431;-77
2021/08/25 06:30:55;;;;;;;;;;;;;;;23.22;36.41;99922.22;3338745;29;20015;-77
2021/08/25 06:32:35;;;;;;;;;;;;;;;23.30;36.90;99918.94;3338685;29;19941;-77
2021/08/25 06:34:16;;;;;;;;;;;;;;;23.41;36.45;99925.97;3338505;29;19935;-76
2021/08/25 06:35:57;;;;;;;;;;;;;;;23.54;36.54;99921.06;3337566;29;20001;-77
2021/08/25 06:37:37;;;;;;;;;;;;;;;23.70;36.20;99909.91;3338244;29;19932;-77
2021/08/25 06:39:18;;;;;;;;;;;;;;;23.90;35.72;99913.66;3338438;29;20031;-77
2021/08/25 06:40:58;;;;;;;;;;;;;;;24.09;35.50;99909.25;3337672;29;19928;-78
2021/08/25 06:42:39;;;;;;;;;;;;;;;24.29;35.39;99915.69;3338674;29;19928;-77
2021/08/25 06:44:19;;;;;;;;;;;;;;;24.40;34.94;99921.94;3337650;29;19996;-76
2021/08/25 06:46:00;;;;;;;;;;;;;;;24.52;34.71;99925.13;3338485;29;20294;-76
2021/08/25 06:47:41;;;;;;;;;;;;;;;24.65;34.77;99918.25;3337814;29;19936;-75
2021/08/25 06:49:22;;;;;;;;;;;;;;;24.75;34.58;99923.63;3338325;29;19992;-76
2021/08/25 06:51:03;;;;;;;;;;;;;;;24.88;34.09;99924.91;3338407;29;19928;-77
2021/08/25 06:52:43;;;;;;;;;;;;;;;24.96;34.19;99925.13;3338453;29;19985;-76
2021/08/25 06:54:24;;;;;;;;;;;;;;;25.03;34.03;99919.34;3325116;29;19928;-78
2021/08/25 06:56:04;;;;;;;;;;;;;;;25.12;33.54;99923.09;3334861;29;20128;-76
2021/08/25 06:57:45;;;;;;;;;;;;;;;25.25;33.71;99921.66;3338167;29;20015;-75
2021/08/25 06:59:25;;;;;;;;;;;;;;;25.34;33.10;99917.19;3337899;29;19928;-75
2021/08/25 07:01:06;;;;;;;;;;;;;;;25.46;33.38;99912.16;3338416;29;19920;-76
2021/08/25 07:02:46;;;;;;;;;;;;;;;25.59;33.07;99920.78;3338923;29;19928;-78
2021/08/25 07:04:27;;;;;;;;;;;;;;;25.66;32.86;99922.06;3339289;29;19994;-76
2021/08/25 07:06:08;;;;;;;;;;;;;;;25.75;32.91;99918.72;3341761;29;19927;-76
2021/08/25 07:07:48;;;;;;;;;;;;;;;25.84;32.38;99916.94;3341462;29;19958;-75
2021/08/25 07:09:29;;;;;;;;;;;;;;;25.96;32.71;99920.13;3340069;29;20423;-76
2021/08/25 07:11:09;;;;;;;;;;;;;;;26.14;32.93;99926.75;3338518;29;19928;-76
2021/08/25 07:12:50;;;;;;;;;;;;;;;26.30;32.05;99930.91;3336082;29;19936;-75
2021/08/25 07:14:30;;;;;;;;;;;;;;;26.45;32.14;99924.41;3339832;29;20368;-75
2021/08/25 07:16:14;;;;;;;;;;;;;;;26.53;31.95;99922.97;3340737;29;20081;-77
2021/08/25 07:17:54;;;;;;;;;;;;;;;26.53;31.17;99923.78;3329406;29;19929;-77
2021/08/25 07:19:35;;;;;;;;;;;;;;;26.56;32.37;99927.84;3338791;29;19929;-76
2021/08/25 07:21:15;;;;;;;;;;;;;;;26.63;31.12;99927.50;3341064;29;20447;-77
2021/08/25 07:22:56;;;;;;;;;;;;;;;26.71;31.93;99938.56;3340950;29;19928;-77
2021/08/25 07:24:37;;;;;;;;;;;;;;;26.79;31.28;99931.63;3338091;29;20289;-76
2021/08/25 07:26:17;;;;;;;;;;;;;;;26.87;31.16;99927.41;3336884;29;20413;-76
2021/08/25 07:27:58;;;;;;;;;;;;;;;26.91;30.89;99931.97;3334508;29;20015;-77
2021/08/25 07:29:38;;;;;;;;;;;;;;;27.01;30.85;99932.94;3340938;29;19935;-76
2021/08/25 07:31:19;;;;;;;;;;;;;;;27.09;30.19;99929.53;3343966;29;20031;-76
2021/08/25 07:32:59;;;;;;;;;;;;;;;27.18;30.22;99922.28;3341841;29;20018;-77
2021/08/25 07:34:40;;;;;;;;;;;;;;;27.23;30.00;99919.44;3338781;29;19951;-76
2021/08/25 07:36:20;;;;;;;;;;;;;;;27.24;30.86;99921.09;3339368;29;19954;-77
2021/08/25 07:38:01;;;;;;;;;;;;;;;27.23;30.16;99930.41;3341610;29;19944;-76
2021/08/25 07:39:41;;;;;;;;;;;;;;;27.22;30.43;99923.31;3340151;29;20339;-75
2021/08/25 07:41:22;;;;;;;;;;;;;;;27.21;30.39;99932.66;3337738;29;19935;-77
2021/08/25 07:43:03;;;;;;;;;;;;;;;27.29;30.14;99922.94;3337155;29;19939;-76
2021/08/25 07:44:44;;;;;;;;;;;;;;;27.46;30.81;99928.63;3338387;29;19929;-76
2021/08/25 07:46:31;;;;;;;;;;;;;;;27.65;29.46;99914.88;3337693;29;19932;-75
2021/08/25 07:48:13;;;;;;;;;;;;;;;27.86;29.35;99920.00;3338607;29;20023;-75
2021/08/25 07:49:54;;;;;;;;;;;;;;;28.02;29.08;99918.56;3338587;29;19928;-75
2021/08/25 07:51:35;;;;;;;;;;;;;;;28.15;29.31;99903.22;3336884;29;19975;-75
2021/08/25 07:53:16;;;;;;;;;;;;;;;28.29;29.59;99909.50;3336411;29;19928;-78
2021/08/25 07:54:57;;;;;;;;;;;;;;;28.42;28.81;99907.84;3338891;29;19931;-71
2021/08/25 07:56:39;;;;;;;;;;;;;;;28.54;28.49;99910.91;3340160;29;19928;-78
2021/08/25 07:58:19;;;;;;;;;;;;;;;28.61;28.81;99913.22;3335964;29;20325;-78
2021/08/25 08:00:00;;;;;;;;;;;;;;;28.66;28.32;99908.44;3338088;29;19934;-78
2021/08/25 08:01:40;;;;;;;;;;;;;;;28.74;29.00;99911.56;3338246;29;19928;-78
2021/08/25 08:03:21;;;;;;;;;;;;;;;28.78;27.87;99909.78;3336897;29;19931;-79
2021/08/25 08:05:04;;;;;;;;;;;;;;;28.86;28.73;99909.88;3337587;29;19928;-77
2021/08/25 08:06:44;;;;;;;;;;;;;;;28.86;27.95;99907.13;3339857;29;19994;-77
2021/08/25 08:08:25;;;;;;;;;;;;;;;28.86;27.09;99909.03;3334912;29;19963;-79
2021/08/25 08:10:06;;;;;;;;;;;;;;;28.96;27.30;99914.28;3346550;29;19924;-78
2021/08/25 08:11:49;;;;;;;;;;;;;;;29.09;27.86;99912.63;3347533;29;19931;-78
2021/08/25 08:13:30;;;;;;;;;;;;;;;29.16;27.48;99907.53;3325056;29;19932;-77
2021/08/25 08:15:11;;;;;;;;;;;;;;;29.30;27.30;99908.25;3333488;29;19939;-78
2021/08/25 08:16:55;;;;;;;;;;;;;;;29.52;27.16;99904.66;3337458;29;19928;-79
2021/08/25 08:18:41;;;;;;;;;;;;;;;29.72;26.98;99908.81;3337317;29;20823;-78
2021/08/25 08:20:23;;;;;;;;;;;;;;;29.88;26.38;99894.66;3335903;29;19968;-79
2021/08/25 08:22:05;;;;;;;;;;;;;;;30.03;27.08;99904.41;3332010;29;20087;-72
2021/08/25 08:23:46;;;;;;;;;;;;;;;30.09;26.64;99897.59;3337906;29;19928;-78
2021/08/25 08:25:28;;;;;;;;;;;;;;;30.18;26.74;99892.94;3337101;29;19931;-78
2021/08/25 08:27:08;;;;;;;;;;;;;;;30.32;26.81;99893.63;3337684;29;20365;-78
2021/08/25 08:28:51;;;;;;;;;;;;;;;30.45;26.30;99891.88;3337222;29;20340;-77
2021/08/25 08:30:32;;;;;;;;;;;;;;;30.52;26.33;99885.91;3338534;29;20059;-78
2021/08/25 08:32:12;;;;;;;;;;;;;;;30.57;26.44;99880.22;3340500;29;19929;-77
2021/08/25 08:33:53;;;;;;;;;;;;;;;30.54;25.69;99872.59;3339508;29;19920;-79
2021/08/25 08:35:36;;;;;;;;;;;;;;;30.55;25.57;99874.22;3339130;29;20412;-80
2021/08/25 08:37:17;;;;;;;;;;;;;;;30.58;25.56;99870.84;3339109;29;19936;-78
2021/08/25 08:38:58;;;;;;;;;;;;;;;30.58;25.81;99870.84;3339448;29;19929;-80
2021/08/25 08:40:38;;;;;;;;;;;;;;;30.63;26.53;99870.66;3340019;29;19994;-78
2021/08/25 08:42:29;;;;;;;;;;;;;;;30.78;26.01;99867.41;3338772;29;19932;-79